Time;durP1;ratioP1;P1;durP2;ratioP2;P2;SDS_P1;SDS_P2;PMS_P1;PMS_P2;Temp;Humidity;BMP_temperature;BMP_pressure;BME280_temperature;BME280_humidity;BME280_pressure;Samples;Min_cycle;Max_cycle;Signal;HPM_P1;HPM_P2
2021/03/01 00:01:17;;;;;;;22.97;9.20;;;;;;;2.18;82.22;102153.47;124135;1111;23019;-58
2021/03/01 00:03:46;;;;;;;22.40;8.37;;;;;;;2.18;82.59;102150.72;124182;1112;23199;-61
2021/03/01 00:06:15;;;;;;;23.10;8.93;;;;;;;2.20;82.36;102153.89;124149;1111;23038;-60
2021/03/01 00:08:44;;;;;;;24.17;10.17;;;;;;;2.20;82.19;102140.11;124269;1112;23086;-58
2021/03/01 00:11:12;;;;;;;21.37;8.07;;;;;;;2.21;82.17;102149.98;124214;1111;23081;-61
2021/03/01 00:13:41;;;;;;;28.53;10.47;;;;;;;2.22;81.85;102137.77;124279;1112;23225;-60
2021/03/01 00:16:10;;;;;;;27.07;10.17;;;;;;;2.21;82.59;102149.98;124252;1111;23024;-59
2021/03/01 00:18:39;;;;;;;29.47;10.80;;;;;;;2.19;82.32;102148.76;124361;1112;23090;-60
2021/03/01 00:21:08;;;;;;;24.90;9.07;;;;;;;2.18;82.25;102152.67;124336;1112;23027;-58
2021/03/01 00:23:37;;;;;;;25.10;10.55;;;;;;;2.17;82.67;102159.36;124403;1112;23087;-62
2021/03/01 00:26:06;;;;;;;27.80;11.27;;;;;;;2.16;82.69;102168.78;124342;1112;26521;-62
2021/03/01 00:28:36;;;;;;;25.23;9.83;;;;;;;2.16;82.41;102168.78;124303;1112;23034;-62
2021/03/01 00:31:05;;;;;;;29.43;12.27;;;;;;;2.17;82.38;102173.14;124271;1112;27293;-59
2021/03/01 00:33:35;;;;;;;25.90;10.03;;;;;;;2.16;82.78;102166.03;124355;1112;23033;-61
2021/03/01 00:36:04;;;;;;;30.30;12.28;;;;;;;2.15;82.79;102180.98;124455;1111;23019;-62
2021/03/01 00:38:33;;;;;;;27.87;11.53;;;;;;;2.14;82.50;102171.92;124398;1112;23232;-61
2021/03/01 00:41:02;;;;;;;33.70;12.50;;;;;;;2.15;82.16;102189.25;124426;1111;23235;-58
2021/03/01 00:43:32;;;;;;;28.40;11.23;;;;;;;2.14;82.26;102193.97;124486;1112;26199;-61
2021/03/01 00:46:01;;;;;;;27.23;9.87;;;;;;;2.16;82.62;102199.89;124317;1112;23202;-61
2021/03/01 00:48:30;;;;;;;30.10;11.13;;;;;;;2.16;82.83;102202.65;124241;1112;23023;-62
2021/03/01 00:51:00;;;;;;;28.53;11.67;;;;;;;2.18;82.41;102192.05;124320;1112;24239;-62
2021/03/01 00:53:29;;;;;;;28.03;10.57;;;;;;;2.19;82.64;102185.35;124337;1112;23038;-57
2021/03/01 00:55:58;;;;;;;26.60;10.33;;;;;;;2.19;82.31;102185.35;124361;1112;26408;-61
2021/03/01 00:58:27;;;;;;;32.20;12.80;;;;;;;2.20;82.84;102184.20;124339;1112;23173;-61
2021/03/01 01:00:56;;;;;;;26.90;10.30;;;;;;;2.21;83.17;102179.48;124341;1112;28259;-61
2021/03/01 01:03:26;;;;;;;28.53;11.73;;;;;;;2.22;82.62;102159.02;124339;1110;23093;-59
2021/03/01 01:05:55;;;;;;;30.97;12.53;;;;;;;2.24;82.53;102182.28;124377;1110;26521;-60
2021/03/01 01:08:24;;;;;;;28.93;11.80;;;;;;;2.24;82.73;102173.21;124439;1112;23047;-59
2021/03/01 01:10:53;;;;;;;28.97;11.93;;;;;;;2.24;82.31;102173.21;124330;1111;23037;-61
2021/03/01 01:13:23;;;;;;;29.00;12.30;;;;;;;2.24;83.20;102171.25;124405;1112;23197;-61
2021/03/01 01:15:52;;;;;;;32.28;12.25;;;;;;;2.27;82.42;102158.69;124372;1112;23092;-61
2021/03/01 01:18:21;;;;;;;32.27;11.90;;;;;;;2.29;82.37;102154.40;124364;1110;26196;-60
2021/03/01 01:20:50;;;;;;;28.33;10.83;;;;;;;2.28;83.04;102152.00;124368;1110;23037;-60
2021/03/01 01:23:19;;;;;;;29.50;12.47;;;;;;;2.28;83.10;102158.31;124330;1112;27354;-60
2021/03/01 01:25:49;;;;;;;31.73;12.50;;;;;;;2.28;82.96;102152.00;124409;1111;23099;-61
2021/03/01 01:28:19;;;;;;;29.33;12.57;;;;;;;2.27;82.85;102151.23;124369;1110;26047;-59
2021/03/01 01:30:48;;;;;;;32.08;13.03;;;;;;;2.29;82.29;102146.13;124329;1112;23232;-58
2021/03/01 01:33:18;;;;;;;27.53;10.70;;;;;;;2.31;83.26;102154.81;124337;1112;23029;-59
2021/03/01 01:35:47;;;;;;;32.40;12.78;;;;;;;2.31;82.42;102157.56;124453;1112;23139;-60
2021/03/01 01:38:16;;;;;;;35.53;12.77;;;;;;;2.31;83.13;102154.81;124339;1111;23070;-59
2021/03/01 01:40:45;;;;;;;30.60;11.87;;;;;;;2.31;83.20;102162.28;124358;1112;26199;-61
2021/03/01 01:43:14;;;;;;;28.57;11.23;;;;;;;2.30;82.43;102158.72;124356;1111;23859;-62
2021/03/01 01:45:43;;;;;;;28.40;11.03;;;;;;;2.29;82.70;102157.16;124372;1112;23484;-61
2021/03/01 01:48:13;;;;;;;32.17;14.10;;;;;;;2.29;83.16;102153.59;124347;1110;23030;-59
2021/03/01 01:50:42;;;;;;;35.13;12.97;;;;;;;2.31;83.13;102154.02;124483;1111;23439;-59
2021/03/01 01:53:11;;;;;;;34.53;13.73;;;;;;;2.32;82.85;102155.58;124318;1112;27744;-59
2021/03/01 01:55:40;;;;;;;;;;;;;;;2.32;82.83;102156.38;124673;1112;23109;-60
2021/03/01 01:58:10;;;;;;;27.67;11.60;;;;;;;2.33;83.38;102157.98;124341;1110;23152;-60
2021/03/01 02:00:45;;;;;;;29.00;12.03;;;;;;;2.33;83.14;102174.52;124697;1111;29213;-57
2021/03/01 02:03:32;;;;;;;30.33;11.73;;;;;;;2.31;82.85;102165.04;124322;1112;27220;-56
2021/03/01 02:06:06;;;;;;;31.77;13.23;;;;;;;2.32;83.11;102161.09;124403;1112;26246;-60
2021/03/01 02:08:48;;;;;;;31.80;12.95;;;;;;;2.33;83.36;102163.50;124428;1112;24690;-60
2021/03/01 02:11:23;;;;;;;34.60;12.40;;;;;;;2.33;83.10;102157.98;124323;1112;23035;-60
2021/03/01 02:14:06;;;;;;;30.17;11.50;;;;;;;2.34;82.97;102156.00;124378;1112;23233;-60
2021/03/01 02:16:37;;;;;;;30.53;11.13;;;;;;;2.34;82.94;102151.28;124249;1112;23092;-56
2021/03/01 02:19:07;;;;;;;28.47;11.68;;;;;;;2.35;82.61;102143.82;124350;1112;23080;-60
2021/03/01 02:21:44;;;;;;;33.77;12.70;;;;;;;2.35;83.22;102146.58;124328;1111;23032;-62
2021/03/01 02:24:16;;;;;;;32.70;11.63;;;;;;;2.36;83.16;102145.39;124521;1110;23034;-56
2021/03/01 02:26:48;;;;;;;29.20;11.90;;;;;;;2.37;83.08;102134.02;124479;1111;27778;-61
2021/03/01 02:29:21;;;;;;;28.95;12.10;;;;;;;2.40;82.59;102126.95;124538;1111;25179;-59
2021/03/01 02:31:51;;;;;;;33.50;12.77;;;;;;;2.42;82.80;102130.89;124358;1112;26421;-63
2021/03/01 02:34:22;;;;;;;34.15;14.15;;;;;;;2.45;83.05;102126.59;124487;1112;23029;-60
2021/03/01 02:36:56;;;;;;;37.47;14.40;;;;;;;2.47;82.53;102127.02;124339;1110;26025;-60
2021/03/01 02:39:28;;;;;;;36.30;13.93;;;;;;;2.50;82.39;102133.73;124347;1112;23083;-58
2021/03/01 02:41:58;;;;;;;33.30;13.07;;;;;;;2.50;83.07;102123.52;124387;1112;23235;-58
2021/03/01 02:44:28;;;;;;;29.37;11.80;;;;;;;2.52;82.85;102114.85;124558;1110;23036;-61
2021/03/01 02:46:59;;;;;;;;;;;;;;;2.50;82.45;102112.48;124367;1110;24051;-61
2021/03/01 02:49:29;;;;;;;31.13;11.57;;;;;;;2.52;82.39;102117.61;124364;1112;21691;-60
2021/03/01 02:52:00;;;;;;;29.93;11.47;;;;;;;2.53;82.70;102122.73;124338;1112;23177;-60
2021/03/01 02:54:30;;;;;;;27.87;10.70;;;;;;;2.54;83.03;102118.02;124395;1111;23235;-61
2021/03/01 02:57:01;;;;;;;29.30;11.00;;;;;;;2.55;82.33;102114.08;124386;1110;24675;-60
2021/03/01 02:59:30;;;;;;;31.57;12.30;;;;;;;2.56;82.52;102119.23;124491;1112;23283;-60
2021/03/01 03:02:00;;;;;;;33.00;11.95;;;;;;;2.57;82.74;102117.25;124337;1112;23040;-61
2021/03/01 03:04:31;;;;;;;30.85;11.33;;;;;;;2.57;82.52;102118.05;124434;1110;23069;-59
2021/03/01 03:07:01;;;;;;;33.50;12.50;;;;;;;2.58;82.80;102119.65;124416;1112;23028;-62
2021/03/01 03:09:31;;;;;;;34.30;10.98;;;;;;;2.59;82.62;102132.25;124320;1112;23048;-61
2021/03/01 03:12:04;;;;;;;30.57;11.65;;;;;;;2.60;82.16;102128.34;124428;1110;23030;-60
2021/03/01 03:14:36;;;;;;;29.40;11.20;;;;;;;2.61;82.17;102124.39;124358;1110;23424;-60
2021/03/01 03:17:05;;;;;;;32.33;12.00;;;;;;;2.63;82.76;102121.28;124444;1112;24831;-63
2021/03/01 03:19:35;;;;;;;32.77;12.83;;;;;;;2.62;82.59;102120.47;124471;1111;23040;-59
2021/03/01 03:22:05;;;;;;;28.45;11.40;;;;;;;2.63;82.78;102121.28;124353;1112;23046;-58
2021/03/01 03:24:34;;;;;;;30.68;10.63;;;;;;;2.63;82.26;102121.28;124534;1111;23289;-60
2021/03/01 03:27:05;;;;;;;32.33;11.70;;;;;;;2.66;82.74;102120.50;124464;1112;23161;-59
2021/03/01 03:29:34;;;;;;;30.52;10.90;;;;;;;2.67;82.78;102119.34;124331;1112;23042;-58
2021/03/01 03:32:04;;;;;;;28.67;10.30;;;;;;;2.67;82.30;102124.86;124335;1111;24690;-59
2021/03/01 03:34:34;;;;;;;30.53;11.63;;;;;;;2.69;82.50;102125.27;124741;1111;23039;-56
2021/03/01 03:37:08;;;;;;;32.00;12.30;;;;;;;2.72;82.52;102138.28;124522;1112;23256;-60
2021/03/01 03:39:42;;;;;;;33.40;12.85;;;;;;;2.72;82.12;102122.53;124496;1111;23021;-61
2021/03/01 03:42:15;;;;;;;32.10;12.50;;;;;;;2.73;82.63;102132.38;124451;1110;23236;-60
2021/03/01 03:44:46;;;;;;;35.87;14.23;;;;;;;2.73;82.76;102137.89;124401;1111;23031;-59
2021/03/01 03:47:17;;;;;;;36.13;12.93;;;;;;;2.73;82.39;102132.38;124427;1112;23086;-62
2021/03/01 03:49:47;;;;;;;32.15;11.35;;;;;;;2.75;82.58;102126.50;124592;1112;23085;-59
2021/03/01 03:52:18;;;;;;;33.75;12.00;;;;;;;2.75;82.51;102132.79;124362;1112;23029;-60
2021/03/01 03:54:51;;;;;;;33.90;12.70;;;;;;;2.76;82.12;102130.83;124350;1112;23029;-62
2021/03/01 03:57:23;;;;;;;35.60;13.77;;;;;;;2.75;82.38;102132.02;124481;1111;23028;-60
2021/03/01 03:59:56;;;;;;;31.43;12.33;;;;;;;2.75;82.77;102132.79;124403;1111;26147;-58
2021/03/01 04:02:27;;;;;;;31.70;12.73;;;;;;;2.75;82.70;102123.75;124474;1110;23027;-60
2021/03/01 04:04:56;;;;;;;36.10;14.40;;;;;;;2.74;82.29;102133.17;124476;1112;26526;-61
2021/03/01 04:07:28;;;;;;;36.07;13.57;;;;;;;2.74;82.82;102133.17;125227;1112;23082;-62
2021/03/01 04:10:00;;;;;;;29.77;12.27;;;;;;;2.73;82.53;102135.14;124494;1110;26817;-59
2021/03/01 04:12:32;;;;;;;31.30;12.10;;;;;;;2.72;82.57;102138.28;124388;1112;27435;-60
2021/03/01 04:15:02;;;;;;;35.47;13.90;;;;;;;2.72;82.33;102139.08;124434;1111;23029;-59
2021/03/01 04:17:32;;;;;;;32.33;13.27;;;;;;;2.76;82.20;102139.11;124402;1111;24668;-60
2021/03/01 04:20:02;;;;;;;33.97;12.67;;;;;;;2.76;82.56;102134.39;124537;1111;23174;-60
2021/03/01 04:22:33;;;;;;;30.53;11.90;;;;;;;2.76;82.43;102139.91;124510;1112;23034;-60
2021/03/01 04:25:05;;;;;;;32.20;12.40;;;;;;;2.74;82.79;102122.95;124347;1112;23029;-58
2021/03/01 04:27:38;;;;;;;33.20;12.10;;;;;;;2.73;82.50;102126.09;124408;1112;23174;-60
2021/03/01 04:30:11;;;;;;;27.60;10.93;;;;;;;2.72;82.76;102130.01;124553;1112;23053;-61
2021/03/01 04:32:46;;;;;;;34.67;11.30;;;;;;;2.71;82.31;102134.72;124339;1111;23081;-56
2021/03/01 04:35:19;;;;;;;30.10;10.55;;;;;;;2.71;83.11;102134.72;124588;1111;23040;-60
2021/03/01 04:37:48;;;;;;;27.13;10.53;;;;;;;2.71;82.84;102125.68;124515;1112;24649;-61
2021/03/01 04:40:18;;;;;;;28.80;11.00;;;;;;;2.70;82.76;102130.39;124385;1112;23090;-59
2021/03/01 04:42:48;;;;;;;27.00;10.30;;;;;;;2.71;82.78;102142.23;124496;1112;23109;-60
2021/03/01 04:45:19;;;;;;;29.77;11.88;;;;;;;2.70;82.86;102138.67;124520;1112;26184;-60
2021/03/01 04:47:50;;;;;;;31.20;12.20;;;;;;;2.71;82.85;102133.95;124407;1112;23008;-60
2021/03/01 04:50:20;;;;;;;35.00;14.57;;;;;;;2.74;82.71;102133.17;124416;1111;23037;-60
2021/03/01 04:52:50;;;;;;;35.88;14.40;;;;;;;2.74;82.59;102139.49;124441;1111;23460;-60
2021/03/01 04:55:19;;;;;;;37.57;13.93;;;;;;;2.75;83.07;102132.79;124388;1112;23043;-58
2021/03/01 04:57:52;;;;;;;41.27;15.27;;;;;;;2.76;82.79;102130.83;124415;1112;23030;-59
2021/03/01 05:00:24;;;;;;;40.87;17.03;;;;;;;2.75;82.44;102124.52;124343;1112;23285;-57
2021/03/01 05:02:54;;;;;;;38.95;15.30;;;;;;;2.75;82.73;102127.27;124310;1112;23096;-61
2021/03/01 05:05:23;;;;;;;42.97;17.30;;;;;;;2.75;82.77;102129.27;124492;1113;24686;-59
2021/03/01 05:07:53;;;;;;;40.90;17.93;;;;;;;2.75;82.48;102137.53;124421;1112;23022;-59
2021/03/01 05:10:23;;;;;;;39.90;16.55;;;;;;;2.74;82.48;102125.70;124359;1111;23089;-61
2021/03/01 05:12:52;;;;;;;42.93;16.32;;;;;;;2.73;83.03;102132.38;124512;1112;24831;-59
2021/03/01 05:15:21;;;;;;;42.97;17.53;;;;;;;2.75;82.92;102132.02;124340;1111;26415;-61
2021/03/01 05:17:50;;;;;;;49.00;20.70;;;;;;;2.75;82.83;102138.30;124214;1112;23235;-59
2021/03/01 05:20:19;;;;;;;45.17;18.73;;;;;;;2.76;82.58;102142.66;124317;1111;23195;-57
2021/03/01 05:22:52;;;;;;;40.60;18.57;;;;;;;2.76;82.93;102139.11;124270;1112;23763;-63
2021/03/01 05:25:21;;;;;;;49.17;18.47;;;;;;;2.77;82.88;102141.50;124458;1112;23168;-59
2021/03/01 05:27:50;;;;;;;53.67;18.70;;;;;;;2.76;82.54;102139.91;124353;1112;23235;-62
2021/03/01 05:30:21;;;;;;;43.40;18.35;;;;;;;2.76;82.84;102141.86;124399;1111;27345;-62
2021/03/01 05:32:51;;;;;;;54.20;20.10;;;;;;;2.74;82.90;102136.73;124394;1111;26048;-63
2021/03/01 05:35:20;;;;;;;51.95;21.12;;;;;;;2.75;83.08;102140.30;124437;1111;23102;-64
2021/03/01 05:37:49;;;;;;;58.55;22.60;;;;;;;2.75;82.81;102146.58;124313;1111;23096;-63
2021/03/01 05:40:19;;;;;;;49.27;20.80;;;;;;;2.75;83.07;102151.33;124263;1111;23030;-62
2021/03/01 05:42:53;;;;;;;54.55;24.10;;;;;;;2.76;83.15;102163.92;124387;1112;23716;-62
2021/03/01 05:45:23;;;;;;;51.77;21.37;;;;;;;2.75;82.89;102159.59;124305;1111;26414;-62
2021/03/01 05:47:53;;;;;;;53.20;22.27;;;;;;;2.74;82.56;102161.56;124320;1112;25720;-63
2021/03/01 05:50:22;;;;;;;59.37;22.53;;;;;;;2.74;82.60;102172.59;124370;1112;28305;-61
2021/03/01 05:52:57;;;;;;;60.65;24.75;;;;;;;2.74;82.75;102166.27;124393;1112;25117;-61
2021/03/01 05:55:28;;;;;;;61.50;21.80;;;;;;;2.77;82.99;102171.84;124607;1111;23087;-61
2021/03/01 05:57:59;;;;;;;58.77;24.30;;;;;;;2.77;83.14;102168.28;124464;1111;23184;-62
2021/03/01 06:00:29;;;;;;;54.80;22.00;;;;;;;2.76;82.77;102169.45;124333;1112;25713;-60
2021/03/01 06:03:01;;;;;;;56.70;23.32;;;;;;;2.75;82.94;102176.15;126187;1103;24658;-57
2021/03/01 06:05:31;;;;;;;55.63;23.73;;;;;;;2.75;83.01;102178.91;124610;1111;23103;-55
2021/03/01 06:08:00;;;;;;;;;;;;;;;2.76;82.99;102178.52;125439;1110;27576;-57
2021/03/01 06:10:36;;;;;;;53.40;21.30;;;;;;;2.78;83.10;102186.41;124698;1110;21532;-57
2021/03/01 06:13:07;;;;;;;53.73;20.90;;;;;;;2.76;83.14;102189.55;124708;1111;23125;-56
2021/03/01 06:15:43;;;;;;;51.10;18.97;;;;;;;2.76;83.23;102180.47;124648;1110;23027;-57
2021/03/01 06:18:15;;;;;;;51.23;20.23;;;;;;;2.76;83.29;102191.51;128326;1111;23719;-55
2021/03/01 06:20:44;;;;;;;49.35;20.23;;;;;;;2.77;83.48;102199.42;124389;1112;23077;-58
2021/03/01 06:23:28;;;;;;;46.83;17.30;;;;;;;2.79;82.80;102208.11;124381;1110;23243;-57
2021/03/01 06:26:17;;;;;;;50.03;17.87;;;;;;;2.76;83.31;102194.27;124463;1112;23236;-60
2021/03/01 06:28:48;;;;;;;41.87;17.37;;;;;;;2.76;82.93;102202.54;124453;1112;23090;-57
2021/03/01 06:31:41;;;;;;;49.23;19.27;;;;;;;2.75;83.08;102207.25;124392;1110;26853;-57
2021/03/01 06:34:27;;;;;;;52.70;20.13;;;;;;;2.77;83.03;102206.90;124434;1111;23060;-54
2021/03/01 06:37:03;;;;;;;44.70;16.53;;;;;;;2.78;82.75;102209.27;125187;1111;23026;-56
2021/03/01 06:39:35;;;;;;;45.85;16.30;;;;;;;2.80;83.15;102215.20;124602;1112;23083;-54
2021/03/01 06:42:28;;;;;;;48.13;18.00;;;;;;;2.80;83.41;102208.88;124867;1111;23083;-54
2021/03/01 06:45:14;;;;;;;44.03;17.13;;;;;;;2.84;83.08;102209.71;124384;1111;23069;-58
2021/03/01 06:47:49;;;;;;;52.20;18.87;;;;;;;2.84;83.11;102213.27;124525;1112;25662;-59
2021/03/01 06:50:32;;;;;;;49.00;19.70;;;;;;;2.88;83.17;102216.05;124459;1112;23033;-55
2021/03/01 06:53:15;;;;;;;51.70;19.23;;;;;;;2.90;82.97;102227.50;124713;1112;23048;-59
2021/03/01 06:55:59;;;;;;;53.93;19.23;;;;;;;2.93;83.00;102222.05;124341;1111;24623;-58
2021/03/01 06:58:33;;;;;;;50.10;20.90;;;;;;;2.95;82.72;102224.41;124366;1111;23239;-60
2021/03/01 07:01:10;;;;;;;48.73;18.97;;;;;;;2.98;82.83;102226.43;125104;1112;24831;-60
2021/03/01 07:03:41;;;;;;;52.67;20.37;;;;;;;2.99;83.03;102228.00;124496;1110;23016;-55
2021/03/01 07:06:09;;;;;;;;;;;;;;;3.02;82.65;102227.25;125088;1111;23092;-59
2021/03/01 07:08:48;;;;;;;51.43;18.47;;;;;;;3.02;82.58;102233.55;124628;1111;21601;-55
2021/03/01 07:11:29;;;;;;;53.17;19.47;;;;;;;3.02;82.64;102230.02;124513;1111;23026;-63
2021/03/01 07:14:07;;;;;;;46.00;16.60;;;;;;;3.03;82.40;102228.83;124535;1112;23061;-59
2021/03/01 07:16:38;;;;;;;47.70;18.50;;;;;;;3.03;82.76;102231.59;124514;1111;23233;-58
2021/03/01 07:19:11;;;;;;;50.60;17.90;;;;;;;3.05;82.54;102232.80;124788;1112;23235;-58
2021/03/01 07:21:41;;;;;;;51.20;19.93;;;;;;;3.08;82.90;102225.73;124584;1111;25606;-59
2021/03/01 07:24:10;;;;;;;;;;;;;;;3.10;82.79;102237.95;125368;1111;24740;-55
2021/03/01 07:26:40;;;;;;;45.57;16.00;;;;;;;3.10;82.97;102237.95;124500;1112;21690;-56
2021/03/01 07:29:12;;;;;;;44.67;17.12;;;;;;;3.13;82.65;102230.89;125513;1112;22983;-58
2021/03/01 07:31:47;;;;;;;40.97;14.23;;;;;;;3.15;82.62;102237.63;124459;1110;24354;-57
2021/03/01 07:34:18;;;;;;;44.40;16.30;;;;;;;3.17;82.93;102246.31;124379;1111;26489;-54
2021/03/01 07:36:48;;;;;;;41.65;15.35;;;;;;;3.18;82.96;102236.07;124631;1112;24824;-57
2021/03/01 07:39:17;;;;;;;42.83;16.00;;;;;;;3.21;82.98;102238.05;124551;1112;27632;-57
2021/03/01 07:41:48;;;;;;;43.55;16.90;;;;;;;3.22;82.91;102243.22;124357;1111;27792;-57
2021/03/01 07:44:17;;;;;;;;;;;;;;;3.23;83.13;102238.47;124130;1110;23040;-55
2021/03/01 07:46:50;;;;;;;45.93;17.00;;;;;;;3.24;82.94;102246.39;124202;1112;24665;-61
2021/03/01 07:49:36;;;;;;;51.35;18.85;;;;;;;3.26;82.47;102246.00;124263;1112;26030;-58
2021/03/01 07:52:06;;;;;;;46.13;17.73;;;;;;;3.31;82.67;102247.63;124272;1111;23024;-56
2021/03/01 07:54:56;;;;;;;44.40;17.37;;;;;;;3.31;82.34;102253.91;124454;1111;23038;-57
2021/03/01 07:57:27;;;;;;;50.43;18.70;;;;;;;3.32;82.32;102257.48;124148;1111;23235;-58
2021/03/01 07:59:57;;;;;;;47.40;17.27;;;;;;;3.34;82.65;102261.45;124695;1112;23036;-57
2021/03/01 08:02:29;;;;;;;43.63;16.20;;;;;;;3.37;82.40;102273.70;124133;1112;23000;-56
2021/03/01 08:05:00;;;;;;;52.37;19.63;;;;;;;3.40;82.45;102275.69;124398;1111;23087;-57
2021/03/01 08:07:40;;;;;;;41.07;16.30;;;;;;;3.43;82.35;102269.42;124082;1112;23164;-57
2021/03/01 08:10:12;;;;;;;51.75;17.32;;;;;;;3.44;82.34;102274.55;124137;1110;27409;-57
2021/03/01 08:13:03;;;;;;;56.07;19.73;;;;;;;3.46;82.79;102282.44;124375;1112;27446;-55
2021/03/01 08:15:37;;;;;;;45.55;17.25;;;;;;;3.48;82.25;102275.38;124239;1111;23087;-57
2021/03/01 08:18:07;;;;;;;38.80;15.63;;;;;;;3.53;82.27;102280.55;124217;1112;23290;-57
2021/03/01 08:20:59;;;;;;;48.60;18.17;;;;;;;3.55;82.02;102277.41;124121;1111;23088;-58
2021/03/01 08:23:33;;;;;;;44.00;16.77;;;;;;;3.57;82.04;102280.58;124099;1112;23360;-59
2021/03/01 08:26:07;;;;;;;41.85;16.20;;;;;;;3.58;82.26;102287.70;124118;1111;23036;-56
2021/03/01 08:28:51;;;;;;;45.87;16.27;;;;;;;3.61;82.55;102284.95;124767;1111;23275;-57
2021/03/01 08:31:25;;;;;;;40.50;15.43;;;;;;;3.63;82.37;102285.37;124142;1111;24647;-57
2021/03/01 08:34:15;;;;;;;39.00;15.40;;;;;;;3.63;82.04;102282.61;124392;1111;26177;-55
2021/03/01 08:36:45;;;;;;;48.50;15.53;;;;;;;3.64;81.98;102283.41;124107;1111;23009;-57
2021/03/01 08:39:14;;;;;;;43.10;15.30;;;;;;;3.63;82.14;102290.09;124544;1111;23076;-57
2021/03/01 08:41:45;;;;;;;48.30;17.97;;;;;;;3.65;82.07;102284.98;124171;1111;23100;-56
2021/03/01 08:44:22;;;;;;;39.40;14.80;;;;;;;3.69;82.03;102283.03;124100;1112;23103;-57
2021/03/01 08:47:01;;;;;;;40.87;14.73;;;;;;;3.71;81.88;102295.30;125324;1112;23045;-57
2021/03/01 08:49:31;;;;;;;38.63;14.37;;;;;;;3.71;82.09;102287.02;124127;1111;23086;-58
2021/03/01 08:52:05;;;;;;;41.63;15.80;;;;;;;3.73;81.56;102286.62;124069;1112;23298;-58
2021/03/01 08:54:35;;;;;;;38.23;15.13;;;;;;;3.77;81.72;102290.20;124046;1112;23029;-59
2021/03/01 08:57:08;;;;;;;38.10;13.07;;;;;;;3.80;81.60;102300.50;124087;1112;27886;-57
2021/03/01 08:59:37;;;;;;;36.50;12.40;;;;;;;3.83;81.77;102294.19;124952;1112;23129;-57
2021/03/01 09:02:06;;;;;;;33.87;12.67;;;;;;;3.86;81.81;102296.20;124066;1112;23098;-58
2021/03/01 09:04:35;;;;;;;31.20;11.50;;;;;;;3.87;81.48;102308.85;124019;1110;24803;-55
2021/03/01 09:07:09;;;;;;;30.63;10.27;;;;;;;3.88;81.13;102311.22;124279;1111;23229;-56
2021/03/01 09:09:51;;;;;;;27.30;7.70;;;;;;;3.91;81.15;102312.44;124232;1112;23099;-55
2021/03/01 09:12:23;;;;;;;21.90;7.40;;;;;;;3.91;81.20;102315.97;124325;1111;22994;-58
2021/03/01 09:14:56;;;;;;;24.03;7.20;;;;;;;3.92;81.04;102309.28;124328;1112;23085;-55
2021/03/01 09:17:25;;;;;;;23.57;6.90;;;;;;;3.94;80.88;102309.69;124108;1112;25830;-54
2021/03/01 09:19:56;;;;;;;24.53;7.27;;;;;;;3.96;80.98;102309.30;124084;1112;23563;-56
2021/03/01 09:22:25;;;;;;;25.30;8.50;;;;;;;3.97;80.83;102306.14;124346;1112;27983;-57
2021/03/01 09:24:55;;;;;;;23.03;6.97;;;;;;;4.00;80.88;102310.11;124105;1111;23073;-57
2021/03/01 09:27:33;;;;;;;25.73;8.30;;;;;;;4.01;80.57;102311.71;124495;1112;27320;-56
2021/03/01 09:30:04;;;;;;;27.95;8.95;;;;;;;4.01;80.79;102311.71;124591;1110;23006;-55
2021/03/01 09:32:33;;;;;;;26.20;8.70;;;;;;;4.02;80.77;102313.28;124331;1111;24386;-56
2021/03/01 09:35:20;;;;;;;25.87;9.77;;;;;;;4.05;80.62;102312.53;124100;1111;27260;-55
2021/03/01 09:37:49;;;;;;;25.23;9.43;;;;;;;4.07;80.36;102310.97;124369;1112;23079;-54
2021/03/01 09:40:20;;;;;;;32.10;11.10;;;;;;;4.08;80.70;102317.27;124780;1111;26453;-57
2021/03/01 09:42:49;;;;;;;;;;;;;;;4.10;80.47;102309.38;124675;1111;23354;-57
2021/03/01 09:45:19;;;;;;;25.50;9.05;;;;;;;4.08;80.80;102318.08;124150;1110;21532;-57
2021/03/01 09:47:49;;;;;;;;;;;;;;;4.07;80.47;102322.03;124310;1112;23000;-57
2021/03/01 09:50:19;;;;;;;29.67;8.37;;;;;;;4.05;80.60;102324.39;124195;1112;21571;-56
2021/03/01 09:52:49;;;;;;;32.58;10.70;;;;;;;4.03;80.56;102320.41;124222;1111;23033;-57
2021/03/01 09:55:21;;;;;;;35.78;10.70;;;;;;;4.04;80.62;102322.78;124095;1112;23252;-57
2021/03/01 09:57:51;;;;;;;32.70;11.70;;;;;;;4.03;80.77;102320.41;123978;1112;23273;-57
2021/03/01 10:00:28;;;;;;;31.20;10.75;;;;;;;4.03;80.14;102314.88;124055;1110;23229;-56
2021/03/01 10:03:03;;;;;;;29.00;9.60;;;;;;;4.00;80.69;102307.34;125252;1110;23242;-56
2021/03/01 10:05:34;;;;;;;30.20;10.50;;;;;;;4.02;80.71;102303.03;124593;1111;26070;-56
2021/03/01 10:08:06;;;;;;;32.50;11.40;;;;;;;4.02;80.48;102308.55;124341;1111;23254;-54
2021/03/01 10:10:38;;;;;;;33.05;13.50;;;;;;;4.04;80.21;102308.16;124496;1111;25613;-57
2021/03/01 10:13:09;;;;;;;30.33;12.83;;;;;;;4.05;80.41;102316.09;124346;1112;23529;-56
2021/03/01 10:15:45;;;;;;;40.23;15.45;;;;;;;4.05;80.38;102312.53;124112;1112;24157;-55
2021/03/01 10:18:15;;;;;;;34.17;14.57;;;;;;;4.06;80.32;102314.90;124184;1112;26086;-56
2021/03/01 10:20:51;;;;;;;39.42;17.10;;;;;;;4.07;80.24;102322.03;124169;1112;23034;-57
2021/03/01 10:23:35;;;;;;;39.87;16.90;;;;;;;4.10;80.09;102324.01;124126;1112;22994;-58
2021/03/01 10:26:14;;;;;;;37.90;15.83;;;;;;;4.11;80.02;102322.05;124570;1112;26215;-58
2021/03/01 10:28:50;;;;;;;35.73;15.97;;;;;;;4.09;79.87;102319.67;124108;1111;26892;-56
2021/03/01 10:31:22;;;;;;;37.50;14.70;;;;;;;4.12;80.31;102323.61;124349;1112;23218;-57
2021/03/01 10:33:56;;;;;;;38.50;17.70;;;;;;;4.13;80.15;102321.66;124542;1112;23034;-57
2021/03/01 10:36:29;;;;;;;32.50;15.40;;;;;;;4.15;79.80;102324.82;124675;1111;23036;-54
2021/03/01 10:39:01;;;;;;;41.67;19.03;;;;;;;4.17;80.18;102316.94;124141;1112;22983;-56
2021/03/01 10:41:32;;;;;;;42.30;18.43;;;;;;;4.22;80.20;102322.12;124220;1112;23039;-57
2021/03/01 10:44:05;;;;;;;44.33;16.43;;;;;;;4.24;79.76;102316.99;124519;1111;23027;-55
2021/03/01 10:46:36;;;;;;;37.57;16.40;;;;;;;4.27;80.15;102324.50;124342;1112;23033;-56
2021/03/01 10:49:15;;;;;;;41.70;17.20;;;;;;;4.27;80.08;102307.91;124172;1111;23049;-57
2021/03/01 10:51:44;;;;;;;41.07;16.37;;;;;;;4.27;79.78;102319.77;124350;1112;23054;-57
2021/03/01 10:54:14;;;;;;;42.77;18.67;;;;;;;4.27;79.83;102314.24;124405;1111;25389;-57
2021/03/01 10:56:43;;;;;;;40.77;16.87;;;;;;;4.27;79.92;102310.67;124180;1111;24691;-56
2021/03/01 10:59:13;;;;;;;45.97;17.67;;;;;;;4.31;79.89;102308.72;124154;1112;23089;-57
2021/03/01 11:01:43;;;;;;;40.13;15.87;;;;;;;4.31;79.70;102312.29;124054;1112;23039;-58
2021/03/01 11:04:15;;;;;;;43.47;18.67;;;;;;;4.34;79.92;102316.26;124790;1111;23217;-58
2021/03/01 11:06:46;;;;;;;41.13;19.67;;;;;;;4.40;79.91;102317.48;125302;1110;23077;-57
2021/03/01 11:09:17;;;;;;;37.87;17.63;;;;;;;4.44;79.86;102318.28;124814;1112;24667;-56
2021/03/01 11:11:47;;;;;;;37.80;15.83;;;;;;;4.45;79.63;102317.89;124662;1112;23029;-58
2021/03/01 11:14:18;;;;;;;40.57;18.03;;;;;;;4.48;79.71;102313.56;124135;1112;27434;-58
2021/03/01 11:16:53;;;;;;;41.87;17.93;;;;;;;4.49;79.48;102318.70;125205;1110;24738;-57
2021/03/01 11:19:22;;;;;;;45.97;19.57;;;;;;;4.51;79.80;102323.88;124494;1112;23048;-57
2021/03/01 11:21:52;;;;;;;38.90;16.45;;;;;;;4.53;79.45;102310.44;124122;1112;23028;-58
2021/03/01 11:24:22;;;;;;;39.30;18.37;;;;;;;4.55;79.47;102308.08;124237;1112;23083;-57
2021/03/01 11:26:53;;;;;;;42.98;17.45;;;;;;;4.52;79.19;102311.61;125409;1110;23089;-58
2021/03/01 11:29:24;;;;;;;36.23;16.93;;;;;;;4.51;79.16;102308.05;124316;1111;23027;-60
2021/03/01 11:31:53;;;;;;;37.70;14.98;;;;;;;4.55;79.22;102316.38;124249;1110;23234;-57
2021/03/01 11:34:23;;;;;;;34.20;14.85;;;;;;;4.55;79.42;102314.38;124990;1112;27370;-66